sensor_id;sensor_type;location;lat;lon;timestamp;pressure;altitude;pressure_sealevel;temperature;humidity
14295;BME280;7231;59.370;18.016;2023-03-18T00:01:16;100809.47;;;4.79;76.40
14295;BME280;7231;59.370;18.016;2023-03-18T00:03:44;100804.28;;;4.79;76.65
14295;BME280;7231;59.370;18.016;2023-03-18T00:06:14;100799.97;;;4.80;76.52
14295;BME280;7231;59.370;18.016;2023-03-18T00:08:43;100742.03;;;4.47;76.35
14295;BME280;7231;59.370;18.016;2023-03-18T00:11:15;100802.66;;;4.81;76.59
14295;BME280;7231;59.370;18.016;2023-03-18T00:13:44;100795.81;;;4.83;76.34
14295;BME280;7231;59.370;18.016;2023-03-18T00:16:14;100794.03;;;4.82;76.63
14295;BME280;7231;59.370;18.016;2023-03-18T00:18:43;100806.22;;;4.83;76.02
14295;BME280;7231;59.370;18.016;2023-03-18T00:21:11;100789.72;;;4.83;76.47
14295;BME280;7231;59.370;18.016;2023-03-18T00:23:39;100776.38;;;4.75;76.33
14295;BME280;7231;59.370;18.016;2023-03-18T00:26:07;100805.41;;;4.84;76.49
14295;BME280;7231;59.370;18.016;2023-03-18T00:28:37;100791.53;;;4.84;76.30
14295;BME280;7231;59.370;18.016;2023-03-18T00:31:09;100779.13;;;4.78;76.41
14295;BME280;7231;59.370;18.016;2023-03-18T00:33:38;100780.22;;;4.83;76.26
14295;BME280;7231;59.370;18.016;2023-03-18T00:36:09;100788.91;;;4.84;76.36
14295;BME280;7231;59.370;18.016;2023-03-18T00:38:39;100707.97;;;4.41;76.61
14295;BME280;7231;59.370;18.016;2023-03-18T00:41:08;100772.44;;;4.83;76.25
14295;BME280;7231;59.370;18.016;2023-03-18T00:43:44;100736.56;;;4.59;76.48
14295;BME280;7231;59.370;18.016;2023-03-18T00:46:16;100776.66;;;4.81;76.64
14295;BME280;7231;59.370;18.016;2023-03-18T00:48:45;100773.25;;;4.82;76.45
14295;BME280;7231;59.370;18.016;2023-03-18T00:51:14;100764.03;;;4.71;76.47
14295;BME280;7231;59.370;18.016;2023-03-18T00:53:45;100714.28;;;4.46;77.00
14295;BME280;7231;59.370;18.016;2023-03-18T00:56:14;100670.72;;;4.22;76.35
14295;BME280;7231;59.370;18.016;2023-03-18T00:58:45;100774.00;;;4.80;76.89
14295;BME280;7231;59.370;18.016;2023-03-18T01:01:13;100767.91;;;4.79;77.17
14295;BME280;7231;59.370;18.016;2023-03-18T01:03:43;100757.44;;;4.78;76.83
14295;BME280;7231;59.370;18.016;2023-03-18T01:06:15;100756.56;;;4.77;76.81
14295;BME280;7231;59.370;18.016;2023-03-18T01:08:43;100637.47;;;4.15;76.98
14295;BME280;7231;59.370;18.016;2023-03-18T01:11:14;100715.63;;;4.55;77.10
14295;BME280;7231;59.370;18.016;2023-03-18T01:13:45;100740.28;;;4.64;77.11
14295;BME280;7231;59.370;18.016;2023-03-18T01:16:14;100738.28;;;4.76;77.09
14295;BME280;7231;59.370;18.016;2023-03-18T01:18:44;100741.72;;;4.75;77.13
14295;BME280;7231;59.370;18.016;2023-03-18T01:21:12;100710.28;;;4.52;77.03
14295;BME280;7231;59.370;18.016;2023-03-18T01:23:40;100743.41;;;4.74;77.09
14295;BME280;7231;59.370;18.016;2023-03-18T01:26:08;100733.03;;;4.74;77.14
14295;BME280;7231;59.370;18.016;2023-03-18T01:28:37;100734.81;;;4.75;77.45
14295;BME280;7231;59.370;18.016;2023-03-18T01:31:06;100727.53;;;4.68;77.21
14295;BME280;7231;59.370;18.016;2023-03-18T01:33:34;100729.63;;;4.75;77.43
14295;BME280;7231;59.370;18.016;2023-03-18T01:36:03;100604.75;;;4.01;77.20
14295;BME280;7231;59.370;18.016;2023-03-18T01:38:32;100741.78;;;4.76;77.50
14295;BME280;7231;59.370;18.016;2023-03-18T01:41:00;100627.84;;;4.13;77.64
14295;BME280;7231;59.370;18.016;2023-03-18T01:43:31;100720.94;;;4.75;77.34
14295;BME280;7231;59.370;18.016;2023-03-18T01:46:22;100717.44;;;4.74;77.55
14295;BME280;7231;59.370;18.016;2023-03-18T01:48:50;100721.75;;;4.74;77.43
14295;BME280;7231;59.370;18.016;2023-03-18T01:51:18;100715.66;;;4.73;77.57
14295;BME280;7231;59.370;18.016;2023-03-18T01:53:48;100715.72;;;4.75;77.63
14295;BME280;7231;59.370;18.016;2023-03-18T01:56:17;100697.69;;;4.60;77.41
14295;BME280;7231;59.370;18.016;2023-03-18T01:58:50;100719.28;;;4.77;78.02
14295;BME280;7231;59.370;18.016;2023-03-18T02:01:22;100716.63;;;4.75;77.51
14295;BME280;7231;59.370;18.016;2023-03-18T02:03:53;100665.31;;;4.36;78.06
14295;BME280;7231;59.370;18.016;2023-03-18T02:06:22;100729.47;;;4.72;77.60
14295;BME280;7231;59.370;18.016;2023-03-18T02:08:51;100731.81;;;4.68;77.90
14295;BME280;7231;59.370;18.016;2023-03-18T02:11:19;100707.53;;;4.49;78.29
14295;BME280;7231;59.370;18.016;2023-03-18T02:13:49;100733.59;;;4.51;78.66
14295;BME280;7231;59.370;18.016;2023-03-18T02:16:22;100720.88;;;4.39;79.09
14295;BME280;7231;59.370;18.016;2023-03-18T02:18:57;100744.50;;;4.28;79.75
14295;BME280;7231;59.370;18.016;2023-03-18T02:21:39;100744.84;;;4.17;80.52
14295;BME280;7231;59.370;18.016;2023-03-18T02:24:19;100746.94;;;4.08;81.24
14295;BME280;7231;59.370;18.016;2023-03-18T02:26:53;100746.63;;;4.02;81.36
14295;BME280;7231;59.370;18.016;2023-03-18T02:29:30;100722.06;;;3.79;82.42
14295;BME280;7231;59.370;18.016;2023-03-18T02:32:00;100676.03;;;3.43;82.87
14295;BME280;7231;59.370;18.016;2023-03-18T02:34:31;100744.19;;;3.73;83.68
14295;BME280;7231;59.370;18.016;2023-03-18T02:37:00;100749.22;;;3.70;84.65
14295;BME280;7231;59.370;18.016;2023-03-18T02:39:28;100747.28;;;3.66;85.37
14295;BME280;7231;59.370;18.016;2023-03-18T02:41:57;100699.03;;;3.37;86.21
14295;BME280;7231;59.370;18.016;2023-03-18T02:44:26;100742.56;;;3.58;86.68
14295;BME280;7231;59.370;18.016;2023-03-18T02:46:56;100747.75;;;3.58;87.46
14295;BME280;7231;59.370;18.016;2023-03-18T02:49:26;100753.66;;;3.56;87.67
14295;BME280;7231;59.370;18.016;2023-03-18T02:51:54;100752.75;;;3.55;88.33
14295;BME280;7231;59.370;18.016;2023-03-18T02:54:24;100679.94;;;3.04;88.70
14295;BME280;7231;59.370;18.016;2023-03-18T02:56:53;100758.75;;;3.54;89.02
14295;BME280;7231;59.370;18.016;2023-03-18T02:59:22;100761.25;;;3.53;89.71
14295;BME280;7231;59.370;18.016;2023-03-18T03:01:53;100756.00;;;3.51;90.49
14295;BME280;7231;59.370;18.016;2023-03-18T03:04:23;100602.66;;;2.64;90.84
14295;BME280;7231;59.370;18.016;2023-03-18T03:06:53;100759.41;;;3.50;91.23
14295;BME280;7231;59.370;18.016;2023-03-18T03:09:22;100741.97;;;3.48;91.92
14295;BME280;7231;59.370;18.016;2023-03-18T03:11:50;100747.06;;;3.46;92.32
14295;BME280;7231;59.370;18.016;2023-03-18T03:14:18;100731.44;;;3.45;92.95
14295;BME280;7231;59.370;18.016;2023-03-18T03:16:47;100701.69;;;3.22;92.92
14295;BME280;7231;59.370;18.016;2023-03-18T03:19:16;100738.16;;;3.41;93.71
14295;BME280;7231;59.370;18.016;2023-03-18T03:21:45;100741.47;;;3.39;93.93
14295;BME280;7231;59.370;18.016;2023-03-18T03:24:13;100742.28;;;3.38;93.87
14295;BME280;7231;59.370;18.016;2023-03-18T03:26:41;100746.56;;;3.37;94.40
14295;BME280;7231;59.370;18.016;2023-03-18T03:29:09;100733.09;;;3.28;94.85
14295;BME280;7231;59.370;18.016;2023-03-18T03:31:38;100749.97;;;3.36;95.39
14295;BME280;7231;59.370;18.016;2023-03-18T03:34:06;100751.50;;;3.33;95.46
14295;BME280;7231;59.370;18.016;2023-03-18T03:36:35;100751.50;;;3.33;95.93
14295;BME280;7231;59.370;18.016;2023-03-18T03:39:04;100752.31;;;3.32;96.10
14295;BME280;7231;59.370;18.016;2023-03-18T03:41:32;100757.50;;;3.32;96.41
14295;BME280;7231;59.370;18.016;2023-03-18T03:44:00;100753.94;;;3.30;96.84
14295;BME280;7231;59.370;18.016;2023-03-18T03:46:28;100768.66;;;3.31;97.43
14295;BME280;7231;59.370;18.016;2023-03-18T03:48:56;100759.91;;;3.29;97.88
14295;BME280;7231;59.370;18.016;2023-03-18T03:51:24;100738.41;;;3.15;97.96
14295;BME280;7231;59.370;18.016;2023-03-18T03:53:55;100746.78;;;3.25;98.49
14295;BME280;7231;59.370;18.016;2023-03-18T03:56:23;100749.47;;;3.27;98.68
14295;BME280;7231;59.370;18.016;2023-03-18T03:58:50;100749.28;;;3.24;99.26
14295;BME280;7231;59.370;18.016;2023-03-18T04:01:19;100742.41;;;3.24;99.40
14295;BME280;7231;59.370;18.016;2023-03-18T04:03:47;100739.66;;;3.21;99.57
14295;BME280;7231;59.370;18.016;2023-03-18T04:06:15;100740.00;;;3.28;99.90
14295;BME280;7231;59.370;18.016;2023-03-18T04:08:43;100741.78;;;3.29;99.63
14295;BME280;7231;59.370;18.016;2023-03-18T04:11:13;100738.22;;;3.26;100.00
14295;BME280;7231;59.370;18.016;2023-03-18T04:13:41;100749.47;;;3.27;100.00
14295;BME280;7231;59.370;18.016;2023-03-18T04:16:09;100739.09;;;3.27;100.00
14295;BME280;7231;59.370;18.016;2023-03-18T04:18:37;100730.09;;;3.20;100.00
14295;BME280;7231;59.370;18.016;2023-03-18T04:21:05;100745.25;;;3.29;100.00
14295;BME280;7231;59.370;18.016;2023-03-18T04:23:33;100739.28;;;3.30;100.00
14295;BME280;7231;59.370;18.016;2023-03-18T04:26:01;100736.69;;;3.30;100.00
14295;BME280;7231;59.370;18.016;2023-03-18T04:28:32;100726.31;;;3.30;100.00
14295;BME280;7231;59.370;18.016;2023-03-18T04:31:00;100718.53;;;3.30;100.00
14295;BME280;7231;59.370;18.016;2023-03-18T04:33:28;100717.66;;;3.30;100.00
14295;BME280;7231;59.370;18.016;2023-03-18T04:35:58;100727.94;;;3.28;100.00
14295;BME280;7231;59.370;18.016;2023-03-18T04:38:26;100727.03;;;3.28;100.00
14295;BME280;7231;59.370;18.016;2023-03-18T04:40:54;100725.25;;;3.26;100.00
14295;BME280;7231;59.370;18.016;2023-03-18T04:43:22;100718.84;;;3.20;100.00
14295;BME280;7231;59.370;18.016;2023-03-18T04:45:54;100730.69;;;3.31;100.00
14295;BME280;7231;59.370;18.016;2023-03-18T04:48:23;100732.31;;;3.29;100.00
14295;BME280;7231;59.370;18.016;2023-03-18T04:50:51;100729.78;;;3.31;100.00
14295;BME280;7231;59.370;18.016;2023-03-18T04:53:20;100655.63;;;2.85;100.00
14295;BME280;7231;59.370;18.016;2023-03-18T04:55:48;100734.09;;;3.30;100.00
14295;BME280;7231;59.370;18.016;2023-03-18T04:58:17;100736.75;;;3.32;100.00
14295;BME280;7231;59.370;18.016;2023-03-18T05:00:45;100723.38;;;3.24;100.00
14295;BME280;7231;59.370;18.016;2023-03-18T05:03:14;100743.66;;;3.31;100.00
14295;BME280;7231;59.370;18.016;2023-03-18T05:05:42;100741.06;;;3.31;100.00
14295;BME280;7231;59.370;18.016;2023-03-18T05:08:11;100709.03;;;3.14;100.00
14295;BME280;7231;59.370;18.016;2023-03-18T05:10:40;100734.16;;;3.32;100.00
14295;BME280;7231;59.370;18.016;2023-03-18T05:13:10;100721.69;;;3.24;100.00
14295;BME280;7231;59.370;18.016;2023-03-18T05:15:38;100732.72;;;3.37;100.00
14295;BME280;7231;59.370;18.016;2023-03-18T05:18:06;100737.00;;;3.36;100.00
14295;BME280;7231;59.370;18.016;2023-03-18T05:20:36;100734.09;;;3.30;100.00
14295;BME280;7231;59.370;18.016;2023-03-18T05:23:05;100740.34;;;3.34;100.00
14295;BME280;7231;59.370;18.016;2023-03-18T05:25:33;100735.16;;;3.34;100.00
14295;BME280;7231;59.370;18.016;2023-03-18T05:28:01;100731.66;;;3.33;100.00
14295;BME280;7231;59.370;18.016;2023-03-18T05:30:30;100716.59;;;3.26;100.00
14295;BME280;7231;59.370;18.016;2023-03-18T05:32:58;100740.41;;;3.35;100.00
14295;BME280;7231;59.370;18.016;2023-03-18T05:35:26;100721.03;;;3.29;100.00
14295;BME280;7231;59.370;18.016;2023-03-18T05:37:55;100746.56;;;3.37;100.00
14295;BME280;7231;59.370;18.016;2023-03-18T05:40:23;100735.22;;;3.35;100.00
14295;BME280;7231;59.370;18.016;2023-03-18T05:42:51;100645.44;;;2.88;100.00
14295;BME280;7231;59.370;18.016;2023-03-18T05:45:22;100731.03;;;3.37;100.00
14295;BME280;7231;59.370;18.016;2023-03-18T05:47:50;100717.91;;;3.34;100.00
14295;BME280;7231;59.370;18.016;2023-03-18T05:50:27;100726.81;;;3.39;100.00
14295;BME280;7231;59.370;18.016;2023-03-18T05:52:57;100723.41;;;3.40;100.00
14295;BME280;7231;59.370;18.016;2023-03-18T05:55:26;100711.75;;;3.32;100.00
14295;BME280;7231;59.370;18.016;2023-03-18T05:57:55;100728.59;;;3.40;100.00
14295;BME280;7231;59.370;18.016;2023-03-18T06:00:25;100726.00;;;3.40;100.00
14295;BME280;7231;59.370;18.016;2023-03-18T06:02:54;100732.00;;;3.39;100.00
14295;BME280;7231;59.370;18.016;2023-03-18T06:05:24;100729.41;;;3.39;100.00
14295;BME280;7231;59.370;18.016;2023-03-18T06:07:53;100729.41;;;3.39;100.00
14295;BME280;7231;59.370;18.016;2023-03-18T06:10:23;100734.69;;;3.41;100.00
14295;BME280;7231;59.370;18.016;2023-03-18T06:12:52;100573.38;;;2.49;100.00
14295;BME280;7231;59.370;18.016;2023-03-18T06:15:21;100728.53;;;3.39;100.00
14295;BME280;7231;59.370;18.016;2023-03-18T06:17:50;100724.94;;;3.37;100.00
14295;BME280;7231;59.370;18.016;2023-03-18T06:20:19;100711.91;;;3.35;100.00
14295;BME280;7231;59.370;18.016;2023-03-18T06:22:48;100710.38;;;3.39;100.00
14295;BME280;7231;59.370;18.016;2023-03-18T06:25:18;100705.91;;;3.36;100.00
14295;BME280;7231;59.370;18.016;2023-03-18T06:27:48;100721.56;;;3.38;100.00
14295;BME280;7231;59.370;18.016;2023-03-18T06:30:17;100713.69;;;3.36;100.00
14295;BME280;7231;59.370;18.016;2023-03-18T06:32:45;100721.56;;;3.38;100.00
14295;BME280;7231;59.370;18.016;2023-03-18T06:35:14;100732.09;;;3.41;100.00
14295;BME280;7231;59.370;18.016;2023-03-18T06:37:42;100739.94;;;3.42;100.00
14295;BME280;7231;59.370;18.016;2023-03-18T06:40:11;100691.63;;;3.12;100.00
14295;BME280;7231;59.370;18.016;2023-03-18T06:42:38;100742.72;;;3.45;100.00
14295;BME280;7231;59.370;18.016;2023-03-18T06:45:09;100751.28;;;3.44;100.00
14295;BME280;7231;59.370;18.016;2023-03-18T06:47:37;100743.50;;;3.44;100.00
14295;BME280;7231;59.370;18.016;2023-03-18T06:50:06;100745.94;;;3.41;100.00
14295;BME280;7231;59.370;18.016;2023-03-18T06:52:35;100746.75;;;3.40;100.00
14295;BME280;7231;59.370;18.016;2023-03-18T06:55:05;100730.69;;;3.31;100.00
14295;BME280;7231;59.370;18.016;2023-03-18T06:57:33;100745.84;;;3.40;100.00
14295;BME280;7231;59.370;18.016;2023-03-18T07:00:01;100762.28;;;3.40;100.00
14295;BME280;7231;59.370;18.016;2023-03-18T07:02:31;100635.91;;;2.73;100.00
14295;BME280;7231;59.370;18.016;2023-03-18T07:04:59;100757.28;;;3.43;100.00
14295;BME280;7231;59.370;18.016;2023-03-18T07:07:27;100758.97;;;3.43;100.00
14295;BME280;7231;59.370;18.016;2023-03-18T07:09:55;100740.00;;;3.28;100.00
14295;BME280;7231;59.370;18.016;2023-03-18T07:12:23;100753.38;;;3.35;100.00
14295;BME280;7231;59.370;18.016;2023-03-18T07:14:52;100761.50;;;3.41;100.00
14295;BME280;7231;59.370;18.016;2023-03-18T07:17:20;100769.25;;;3.41;100.00
14295;BME280;7231;59.370;18.016;2023-03-18T07:19:49;100764.06;;;3.41;100.00
14295;BME280;7231;59.370;18.016;2023-03-18T07:22:18;100780.53;;;3.42;100.00
14295;BME280;7231;59.370;18.016;2023-03-18T07:24:47;100765.88;;;3.42;100.00
14295;BME280;7231;59.370;18.016;2023-03-18T07:27:15;100764.88;;;3.40;100.00
14295;BME280;7231;59.370;18.016;2023-03-18T07:29:43;100766.66;;;3.41;100.00
14295;BME280;7231;59.370;18.016;2023-03-18T07:32:12;100722.31;;;3.20;100.00
14295;BME280;7231;59.370;18.016;2023-03-18T07:34:40;100756.56;;;3.46;100.00
14295;BME280;7231;59.370;18.016;2023-03-18T07:37:09;100766.28;;;3.50;100.00
14295;BME280;7231;59.370;18.016;2023-03-18T07:39:37;100765.47;;;3.51;100.00
14295;BME280;7231;59.370;18.016;2023-03-18T07:42:05;100764.59;;;3.50;100.00
14295;BME280;7231;59.370;18.016;2023-03-18T07:44:35;100764.75;;;3.53;100.00
14295;BME280;7231;59.370;18.016;2023-03-18T07:47:03;100780.47;;;3.56;100.00
14295;BME280;7231;59.370;18.016;2023-03-18T07:49:31;100775.19;;;3.55;100.00
14295;BME280;7231;59.370;18.016;2023-03-18T07:51:59;100761.91;;;3.49;100.00
14295;BME280;7231;59.370;18.016;2023-03-18T07:54:28;100746.91;;;3.43;100.00
14295;BME280;7231;59.370;18.016;2023-03-18T07:56:56;100775.47;;;3.59;100.00
14295;BME280;7231;59.370;18.016;2023-03-18T07:59:24;100636.34;;;2.80;100.00
14295;BME280;7231;59.370;18.016;2023-03-18T08:01:52;100784.28;;;3.63;100.00
14295;BME280;7231;59.370;18.016;2023-03-18T08:04:20;100777.41;;;3.64;100.00
14295;BME280;7231;59.370;18.016;2023-03-18T08:06:49;100773.19;;;3.66;100.00
14295;BME280;7231;59.370;18.016;2023-03-18T08:09:20;100688.31;;;3.14;100.00
14295;BME280;7231;59.370;18.016;2023-03-18T08:11:50;100781.13;;;3.69;100.00
14295;BME280;7231;59.370;18.016;2023-03-18T08:14:18;100768.00;;;3.66;100.00
14295;BME280;7231;59.370;18.016;2023-03-18T08:16:46;100767.19;;;3.67;100.00
14295;BME280;7231;59.370;18.016;2023-03-18T08:19:15;100764.78;;;3.70;100.00
14295;BME280;7231;59.370;18.016;2023-03-18T08:21:43;100776.94;;;3.71;100.00
14295;BME280;7231;59.370;18.016;2023-03-18T08:24:11;100767.38;;;3.70;100.00
14295;BME280;7231;59.370;18.016;2023-03-18T08:26:39;100743.22;;;3.54;100.00
14295;BME280;7231;59.370;18.016;2023-03-18T08:29:09;100770.13;;;3.73;100.00
14295;BME280;7231;59.370;18.016;2023-03-18T08:31:37;100773.53;;;3.72;100.00
14295;BME280;7231;59.370;18.016;2023-03-18T08:34:05;100769.97;;;3.70;100.00
14295;BME280;7231;59.370;18.016;2023-03-18T08:36:33;100715.47;;;3.37;100.00
14295;BME280;7231;59.370;18.016;2023-03-18T08:39:01;100766.56;;;3.71;100.00
14295;BME280;7231;59.370;18.016;2023-03-18T08:41:30;100765.75;;;3.72;100.00
14295;BME280;7231;59.370;18.016;2023-03-18T08:44:00;100763.06;;;3.70;100.00
14295;BME280;7231;59.370;18.016;2023-03-18T08:46:29;100767.78;;;3.77;100.00
14295;BME280;7231;59.370;18.016;2023-03-18T08:48:57;100755.78;;;3.79;100.00
14295;BME280;7231;59.370;18.016;2023-03-18T08:51:26;100758.47;;;3.81;100.00
14295;BME280;7231;59.370;18.016;2023-03-18T08:53:54;100734.63;;;3.72;100.00
14295;BME280;7231;59.370;18.016;2023-03-18T08:56:22;100752.78;;;3.88;100.00
14295;BME280;7231;59.370;18.016;2023-03-18T08:58:52;100758.97;;;3.90;100.00
14295;BME280;7231;59.370;18.016;2023-03-18T09:01:20;100766.75;;;3.90;100.00
14295;BME280;7231;59.370;18.016;2023-03-18T09:03:49;100737.56;;;3.78;100.00
14295;BME280;7231;59.370;18.016;2023-03-18T09:06:18;100752.78;;;3.88;100.00
14295;BME280;7231;59.370;18.016;2023-03-18T09:08:46;100759.84;;;3.90;100.00
14295;BME280;7231;59.370;18.016;2023-03-18T09:11:14;100735.13;;;3.81;100.00
14295;BME280;7231;59.370;18.016;2023-03-18T09:13:43;100759.03;;;3.91;100.00
14295;BME280;7231;59.370;18.016;2023-03-18T09:16:11;100745.66;;;3.84;100.00
14295;BME280;7231;59.370;18.016;2023-03-18T09:18:39;100757.50;;;3.95;100.00
14295;BME280;7231;59.370;18.016;2023-03-18T09:21:12;100761.88;;;3.96;100.00
14295;BME280;7231;59.370;18.016;2023-03-18T09:23:40;100764.38;;;3.95;100.00
14295;BME280;7231;59.370;18.016;2023-03-18T09:26:08;100720.63;;;3.68;100.00
14295;BME280;7231;59.370;18.016;2023-03-18T09:28:37;100696.72;;;3.57;100.00
14295;BME280;7231;59.370;18.016;2023-03-18T09:31:05;100765.44;;;3.98;100.00
14295;BME280;7231;59.370;18.016;2023-03-18T09:33:33;100751.19;;;3.90;100.00
14295;BME280;7231;59.370;18.016;2023-03-18T09:36:02;100768.13;;;4.00;100.00
14295;BME280;7231;59.370;18.016;2023-03-18T09:38:32;100774.34;;;4.03;100.00
14295;BME280;7231;59.370;18.016;2023-03-18T09:41:04;100782.94;;;4.02;100.00
14295;BME280;7231;59.370;18.016;2023-03-18T09:43:51;100784.66;;;4.02;100.00
14295;BME280;7231;59.370;18.016;2023-03-18T09:46:27;100774.34;;;4.03;100.00
14295;BME280;7231;59.370;18.016;2023-03-18T09:49:22;100782.31;;;4.06;100.00
14295;BME280;7231;59.370;18.016;2023-03-18T09:52:06;100760.81;;;3.92;100.00
14295;BME280;7231;59.370;18.016;2023-03-18T09:54:43;100774.34;;;4.03;100.00
14295;BME280;7231;59.370;18.016;2023-03-18T09:57:18;100776.88;;;4.02;100.00
14295;BME280;7231;59.370;18.016;2023-03-18T09:59:50;100773.38;;;4.01;100.00
14295;BME280;7231;59.370;18.016;2023-03-18T10:02:25;100775.97;;;4.01;100.00
14295;BME280;7231;59.370;18.016;2023-03-18T10:04:59;100769.97;;;4.02;100.00
14295;BME280;7231;59.370;18.016;2023-03-18T10:07:30;100778.66;;;4.03;100.00
14295;BME280;7231;59.370;18.016;2023-03-18T10:10:05;100768.44;;;4.06;100.00
14295;BME280;7231;59.370;18.016;2023-03-18T10:12:38;100771.03;;;4.06;100.00
14295;BME280;7231;59.370;18.016;2023-03-18T10:15:14;100768.44;;;4.06;100.00
14295;BME280;7231;59.370;18.016;2023-03-18T10:17:50;100768.44;;;4.06;100.00
14295;BME280;7231;59.370;18.016;2023-03-18T10:20:28;100765.84;;;4.06;100.00
14295;BME280;7231;59.370;18.016;2023-03-18T10:23:08;100770.94;;;4.04;100.00
14295;BME280;7231;59.370;18.016;2023-03-18T10:25:44;100762.44;;;4.07;100.00
14295;BME280;7231;59.370;18.016;2023-03-18T10:28:44;100763.66;;;4.13;100.00
14295;BME280;7231;59.370;18.016;2023-03-18T10:31:24;100749.31;;;4.04;100.00
14295;BME280;7231;59.370;18.016;2023-03-18T10:33:57;100762.53;;;4.08;100.00
14295;BME280;7231;59.370;18.016;2023-03-18T10:36:31;100761.78;;;4.11;100.00
14295;BME280;7231;59.370;18.016;2023-03-18T10:39:10;100765.44;;;4.14;100.00
14295;BME280;7231;59.370;18.016;2023-03-18T10:41:42;100759.44;;;4.15;100.00
14295;BME280;7231;59.370;18.016;2023-03-18T10:44:19;100703.34;;;3.85;100.00
14295;BME280;7231;59.370;18.016;2023-03-18T10:46:57;100766.66;;;4.21;100.00
14295;BME280;7231;59.370;18.016;2023-03-18T10:49:30;100738.69;;;4.15;100.00
14295;BME280;7231;59.370;18.016;2023-03-18T10:52:05;100765.84;;;4.22;100.00
14295;BME280;7231;59.370;18.016;2023-03-18T10:54:39;100763.00;;;4.17;100.00
14295;BME280;7231;59.370;18.016;2023-03-18T10:57:11;100755.88;;;4.13;100.00
14295;BME280;7231;59.370;18.016;2023-03-18T10:59:41;100754.25;;;4.15;100.00
14295;BME280;7231;59.370;18.016;2023-03-18T11:02:15;100757.34;;;4.08;100.00
14295;BME280;7231;59.370;18.016;2023-03-18T11:04:48;100743.06;;;4.00;100.00
14295;BME280;7231;59.370;18.016;2023-03-18T11:07:22;100741.44;;;4.02;100.00
14295;BME280;7231;59.370;18.016;2023-03-18T11:09:51;100760.50;;;4.19;100.00
14295;BME280;7231;59.370;18.016;2023-03-18T11:12:25;100762.34;;;4.21;100.00
14295;BME280;7231;59.370;18.016;2023-03-18T11:14:54;100757.06;;;4.20;100.00
14295;BME280;7231;59.370;18.016;2023-03-18T11:17:26;100750.09;;;4.19;100.00
14295;BME280;7231;59.370;18.016;2023-03-18T11:20:00;100751.88;;;4.20;100.00
14295;BME280;7231;59.370;18.016;2023-03-18T11:22:32;100746.13;;;4.26;100.00
14295;BME280;7231;59.370;18.016;2023-03-18T11:25:03;100722.38;;;4.18;100.00
14295;BME280;7231;59.370;18.016;2023-03-18T11:27:37;100741.56;;;4.38;100.00
14295;BME280;7231;59.370;18.016;2023-03-18T11:30:20;100672.06;;;3.98;100.00
14295;BME280;7231;59.370;18.016;2023-03-18T11:33:05;100729.50;;;4.22;100.00
14295;BME280;7231;59.370;18.016;2023-03-18T11:35:43;100747.66;;;4.38;100.00
14295;BME280;7231;59.370;18.016;2023-03-18T11:38:17;100741.56;;;4.38;100.00
14295;BME280;7231;59.370;18.016;2023-03-18T11:40:45;100750.31;;;4.40;100.00
14295;BME280;7231;59.370;18.016;2023-03-18T11:43:18;100742.22;;;4.34;100.00
14295;BME280;7231;59.370;18.016;2023-03-18T11:45:49;100749.19;;;4.35;100.00
14295;BME280;7231;59.370;18.016;2023-03-18T11:48:28;100747.31;;;4.32;100.00
14295;BME280;7231;59.370;18.016;2023-03-18T11:51:33;100739.63;;;4.34;100.00
14295;BME280;7231;59.370;18.016;2023-03-18T11:54:13;100748.31;;;4.34;100.00
14295;BME280;7231;59.370;18.016;2023-03-18T11:56:46;100743.19;;;4.36;100.00
14295;BME280;7231;59.370;18.016;2023-03-18T11:59:42;100740.59;;;4.36;100.00
14295;BME280;7231;59.370;18.016;2023-03-18T12:02:25;100743.19;;;4.36;100.00
14295;BME280;7231;59.370;18.016;2023-03-18T12:05:26;100748.38;;;4.36;100.00
14295;BME280;7231;59.370;18.016;2023-03-18T12:08:07;100740.50;;;4.34;100.00
14295;BME280;7231;59.370;18.016;2023-03-18T12:10:39;100719.50;;;4.30;100.00
14295;BME280;7231;59.370;18.016;2023-03-18T12:13:29;100732.00;;;4.37;100.00
14295;BME280;7231;59.370;18.016;2023-03-18T12:16:10;100737.41;;;4.41;100.00
14295;BME280;7231;59.370;18.016;2023-03-18T12:18:53;100744.38;;;4.42;100.00
14295;BME280;7231;59.370;18.016;2023-03-18T12:21:40;100747.22;;;4.47;100.00
14295;BME280;7231;59.370;18.016;2023-03-18T12:24:26;100733.13;;;4.42;100.00
14295;BME280;7231;59.370;18.016;2023-03-18T12:27:02;100722.91;;;4.29;100.00
14295;BME280;7231;59.370;18.016;2023-03-18T12:29:47;100736.53;;;4.41;100.00
14295;BME280;7231;59.370;18.016;2023-03-18T12:32:27;100659.59;;;3.91;100.00
14295;BME280;7231;59.370;18.016;2023-03-18T12:35:18;100736.22;;;4.35;100.00
14295;BME280;7231;59.370;18.016;2023-03-18T12:40:48;100738.56;;;4.30;100.00
14295;BME280;7231;59.370;18.016;2023-03-18T12:43:38;100733.22;;;4.27;100.00
14295;BME280;7231;59.370;18.016;2023-03-18T12:46:16;100735.66;;;4.24;100.00
14295;BME280;7231;59.370;18.016;2023-03-18T12:48:54;100728.44;;;4.18;100.00
14295;BME280;7231;59.370;18.016;2023-03-18T12:51:29;100733.00;;;4.22;100.00
14295;BME280;7231;59.370;18.016;2023-03-18T12:54:07;100732.09;;;4.22;100.00
14295;BME280;7231;59.370;18.016;2023-03-18T12:56:42;100696.22;;;3.97;100.00
14295;BME280;7231;59.370;18.016;2023-03-18T12:59:15;100695.63;;;4.03;100.00
14295;BME280;7231;59.370;18.016;2023-03-18T13:01:48;100735.97;;;4.30;100.00
14295;BME280;7231;59.370;18.016;2023-03-18T13:04:24;100736.94;;;4.32;100.00
14295;BME280;7231;59.370;18.016;2023-03-18T13:06:59;100737.91;;;4.34;100.00
14295;BME280;7231;59.370;18.016;2023-03-18T13:09:34;100746.59;;;4.35;100.00
14295;BME280;7231;59.370;18.016;2023-03-18T13:12:07;100756.97;;;4.35;100.00
14295;BME280;7231;59.370;18.016;2023-03-18T13:14:43;100754.22;;;4.32;100.00
14295;BME280;7231;59.370;18.016;2023-03-18T13:17:14;100754.22;;;4.32;100.00